| time (UTC) | temp C | wind direction | speed KPH | gust KPH | rain 1hr cm | rain 24hr cm | rain mn cm | humidity % | barometer mb |
| 20260505071548 | 5 | 150 | 3.2 | 4.8 | 0.05 | 0.23 | 0.05 | 87 | 1013.3 |
| 20260505071034 | 5 | 149 | 3.2 | 4.8 | 0.05 | 0.23 | 0.05 | 87 | 1013.4 |
| 20260505070534 | 5 | 80 | 1.6 | 3.2 | 0.05 | 0.23 | 0.05 | 87 | 1013.3 |
| 20260505070047 | 5 | 80 | 3.2 | 3.2 | 0.03 | 0.20 | 0.03 | 87 | 1013.2 |
| 20260505065534 | 5 | 76 | 1.6 | 3.2 | 0.05 | 0.20 | 0.03 | 87 | 1013.2 |
| 20260505065030 | 5 | 76 | 0.0 | 4.8 | 0.03 | 0.18 | 0.00 | 87 | 1013.4 |
| 20260505064615 | 5 | 76 | 3.2 | 6.4 | 0.03 | 0.18 | 0.00 | 87 | 1013.3 |
| 20260505064033 | 5 | 68 | 3.2 | 6.4 | 0.03 | 0.18 | 0.00 | 87 | 1013.3 |
| 20260505063533 | 6 | 71 | 1.6 | 6.4 | 0.03 | 0.18 | 0.00 | 88 | 1013.3 |
| 20260505063045 | 6 | 71 | 3.2 | 8.0 | 0.05 | 0.18 | 0.00 | 88 | 1013.3 |
| 20260505062530 | 6 | 80 | 4.8 | 9.7 | 0.05 | 0.18 | 0.00 | 88 | 1013.1 |
| 20260505062031 | 6 | 89 | 3.2 | 9.7 | 0.05 | 0.18 | 0.00 | 88 | 1013.1 |
| 20260505061551 | 6 | 47 | 4.8 | 9.7 | 0.05 | 0.18 | 0.00 | 88 | 1013.2 |
| 20260505061031 | 6 | 63 | 6.4 | 9.7 | 0.05 | 0.18 | 0.00 | 88 | 1013.2 |
| 20260505060530 | 6 | 51 | 4.8 | 8.0 | 0.05 | 0.18 | 0.00 | 88 | 1013.1 |
| 20260505060052 | 6 | 35 | 4.8 | 8.0 | 0.05 | 0.18 | 0.00 | 88 | 1013.4 |
| 20260505055533 | 6 | 332 | 1.6 | 8.0 | 0.05 | 0.15 | 0.15 | 88 | 1013.5 |
| 20260505055033 | 6 | 332 | 4.8 | 12.9 | 0.05 | 0.15 | 0.15 | 88 | 1013.6 |
| 20260505054553 | 6 | 322 | 8.0 | 12.9 | 0.05 | 0.15 | 0.15 | 89 | 1013.5 |
| 20260505054034 | 6 | 296 | 8.0 | 14.5 | 0.05 | 0.15 | 0.15 | 89 | 1013.4 |
| 20260505053534 | 6 | 295 | 11.3 | 16.1 | 0.05 | 0.15 | 0.15 | 90 | 1013.5 |
| 20260505053048 | 6 | 270 | 12.9 | 16.1 | 0.05 | 0.13 | 0.13 | 89 | 1013.6 |
| 20260505052533 | 6 | 296 | 12.9 | 16.1 | 0.05 | 0.13 | 0.13 | 89 | 1013.6 |
| 20260505052034 | 6 | 295 | 12.9 | 17.7 | 0.05 | 0.13 | 0.13 | 89 | 1013.5 |
| 20260505051547 | 6 | 301 | 12.9 | 20.9 | 0.08 | 0.13 | 0.13 | 89 | 1013.5 |
| 20260505051031 | 6 | 298 | 14.5 | 20.9 | 0.10 | 0.13 | 0.13 | 89 | 1013.7 |
| 20260505050533 | 6 | 286 | 14.5 | 20.9 | 0.13 | 0.13 | 0.13 | 88 | 1013.6 |
| 20260505041545 | 7 | 246 | 4.8 | 16.1 | 0.05 | 0.05 | 0.05 | 82 | 1013.3 |
| 20260505041034 | 7 | 246 | 9.7 | 16.1 | 0.03 | 0.03 | 0.03 | 81 | 1013.3 |
| 20260505040536 | 7 | 251 | 9.7 | 17.7 | 0.00 | 0.00 | 0.00 | 79 | 1013.4 |
| 20260505040056 | 8 | 270 | 12.9 | 17.7 | 0.00 | 0.00 | 0.00 | 76 | 1013.2 |
| 20260505035533 | 8 | 267 | 11.3 | 16.1 | 0.00 | 0.00 | 0.00 | 75 | 1013.2 |
| 20260505035030 | 8 | 271 | 4.8 | 9.7 | 0.00 | 0.00 | 0.00 | 74 | 1013.0 |
| 20260505034604 | 8 | 189 | 4.8 | 6.4 | 0.00 | 0.00 | 0.00 | 72 | 1012.9 |
| 20260505034033 | 8 | 189 | 4.8 | 8.0 | 0.00 | 0.00 | 0.00 | 72 | 1012.7 |
| 20260505033536 | 8 | 189 | 4.8 | 8.0 | 0.00 | 0.00 | 0.00 | 71 | 1012.7 |
| 20260505033043 | 8 | 189 | 6.4 | 8.0 | 0.00 | 0.00 | 0.00 | 74 | 1012.7 |
| 20260505032532 | 8 | 360 | 4.8 | 6.4 | 0.00 | 0.00 | 0.00 | 73 | 1012.7 |
| 20260505032029 | 8 | 360 | 3.2 | 3.2 | 0.00 | 0.00 | 0.00 | 73 | 1012.7 |
| 20260505031549 | 8 | 360 | 1.6 | 3.2 | 0.00 | 0.00 | 0.00 | 73 | 1012.7 |
| 20260505031030 | 8 | 360 | 1.6 | 3.2 | 0.00 | 0.00 | 0.00 | 72 | 1012.7 |
| 20260505030537 | 8 | 360 | 1.6 | 4.8 | 0.00 | 0.00 | 0.00 | 72 | 1012.7 |
| 20260505030054 | 8 | 360 | 3.2 | 4.8 | 0.00 | 0.00 | 0.00 | 71 | 1012.7 |
| 20260505025535 | 8 | 360 | 3.2 | 4.8 | 0.00 | 0.00 | 0.00 | 71 | 1012.6 |
| 20260505025034 | 8 | 360 | 3.2 | 6.4 | 0.00 | 0.00 | 0.00 | 71 | 1012.5 |
| 20260505024549 | 8 | 360 | 4.8 | 8.0 | 0.00 | 0.00 | 0.00 | 68 | 1012.4 |
| 20260505024034 | 8 | 360 | 3.2 | 17.7 | 0.00 | 0.00 | 0.00 | 68 | 1012.3 |
| 20260505023533 | 8 | 360 | 8.0 | 17.7 | 0.00 | 0.00 | 0.00 | 67 | 1012.2 |
| 20260505023048 | 8 | 331 | 9.7 | 14.5 | 0.00 | 0.00 | 0.00 | 68 | 1012.3 |
| 20260505022534 | 8 | 33 | 1.6 | 3.2 | 0.00 | 0.00 | 0.00 | 69 | 1012.2 |
| 20260505022032 | 8 | 0 | 0.0 | 6.4 | 0.00 | 0.00 | 0.00 | 66 | 1012.2 |
| 20260505021550 | 8 | 33 | 0.0 | 6.4 | 0.00 | 0.00 | 0.00 | 65 | 1012.1 |
| 20260505021034 | 9 | 325 | 1.6 | 6.4 | 0.00 | 0.00 | 0.00 | 66 | 1012.2 |
| 20260505020536 | 9 | 44 | 1.6 | 9.7 | 0.00 | 0.00 | 0.00 | 65 | 1012.3 |
| 20260505020054 | 9 | 37 | 4.8 | 9.7 | 0.00 | 0.00 | 0.00 | 66 | 1012.3 |
| 20260505015534 | 9 | 57 | 6.4 | 9.7 | 0.00 | 0.00 | 0.00 | 65 | 1012.2 |
| 20260505015033 | 9 | 40 | 1.6 | 17.7 | 0.00 | 0.00 | 0.00 | 60 | 1012.1 |
| 20260505014549 | 9 | 32 | 8.0 | 30.6 | 0.00 | 0.00 | 0.00 | 58 | 1012.1 |
| 20260505014036 | 10 | 304 | 19.3 | 30.6 | 0.00 | 0.00 | 0.00 | 62 | 1012.1 |
| 20260505013533 | 10 | 321 | 14.5 | 32.2 | 0.00 | 0.00 | 0.00 | 60 | 1012.1 |
| 20260505013047 | 10 | 267 | 17.7 | 32.2 | 0.00 | 0.00 | 0.00 | 58 | 1012.2 |
| 20260505012533 | 11 | 277 | 22.5 | 30.6 | 0.00 | 0.00 | 0.00 | 54 | 1012.0 |
| 20260505012038 | 11 | 290 | 20.9 | 27.4 | 0.00 | 0.00 | 0.00 | 48 | 1011.8 |
| 20260505011548 | 12 | 306 | 20.9 | 25.7 | 0.00 | 0.00 | 0.00 | 47 | 1011.7 |
| 20260505011107 | 12 | 321 | 14.5 | 19.3 | 0.00 | 0.00 | 0.00 | 47 | 1011.4 |
| 20260505010535 | 12 | 312 | 12.9 | 19.3 | 0.00 | 0.00 | 0.00 | 46 | 1011.3 |
| 20260505010110 | 12 | 318 | 11.3 | 17.7 | 0.00 | 0.00 | 0.00 | 47 | 1011.2 |
| 20260505005533 | 12 | 310 | 12.9 | 17.7 | 0.00 | 0.00 | 0.00 | 45 | 1011.1 |
| 20260505005033 | 12 | 276 | 6.4 | 9.7 | 0.00 | 0.00 | 0.00 | 47 | 1011.2 |
| 20260505004558 | 12 | 296 | 6.4 | 11.3 | 0.00 | 0.00 | 0.00 | 46 | 1011.1 |
| 20260505004036 | 12 | 269 | 8.0 | 19.3 | 0.00 | 0.00 | 0.00 | 46 | 1011.2 |
| 20260505003535 | 12 | 267 | 8.0 | 19.3 | 0.00 | 0.00 | 0.00 | 45 | 1011.1 |
| 20260505003051 | 12 | 264 | 11.3 | 17.7 | 0.00 | 0.00 | 0.00 | 44 | 1011.1 |
| 20260505002536 | 12 | 278 | 11.3 | 17.7 | 0.00 | 0.00 | 0.00 | 45 | 1011.3 |
| 20260505002034 | 12 | 273 | 12.9 | 29.0 | 0.00 | 0.00 | 0.00 | 43 | 1011.3 |
| 20260505001547 | 12 | 300 | 16.1 | 29.0 | 0.00 | 0.00 | 0.00 | 42 | 1011.2 |
| 20260505001035 | 12 | 310 | 16.1 | 32.2 | 0.00 | 0.00 | 0.00 | 42 | 1011.2 |
| 20260505000533 | 12 | 313 | 9.7 | 35.4 | 0.00 | 0.00 | 0.00 | 43 | 1011.0 |
| 20260505000056 | 12 | 19 | 27.4 | 35.4 | 0.00 | 0.00 | 0.00 | 43 | 1011.1 |
| 20260504235535 | 12 | 288 | 19.3 | 32.2 | 0.00 | 0.00 | 0.00 | 45 | 1011.2 |
| 20260504235033 | 12 | 281 | 19.3 | 32.2 | 0.00 | 0.00 | 0.00 | 44 | 1011.3 |
| 20260504234553 | 13 | 52 | 19.3 | 32.2 | 0.00 | 0.00 | 0.00 | 39 | 1011.3 |
| 20260504234035 | 13 | 324 | 19.3 | 41.8 | 0.00 | 0.00 | 0.00 | 38 | 1011.4 |
| 20260504233530 | 13 | 20 | 29.0 | 41.8 | 0.00 | 0.00 | 0.00 | 38 | 1011.2 |
| 20260504233050 | 13 | 17 | 27.4 | 43.5 | 0.00 | 0.00 | 0.00 | 39 | 1011.0 |
| 20260504232534 | 13 | 10 | 29.0 | 43.5 | 0.00 | 0.00 | 0.00 | 39 | 1010.8 |
| 20260504232033 | 13 | 5 | 25.7 | 41.8 | 0.00 | 0.00 | 0.00 | 38 | 1010.7 |
| 20260504231618 | 13 | 41 | 30.6 | 41.8 | 0.00 | 0.00 | 0.00 | 38 | 1010.4 |
| 20260504231033 | 13 | 13 | 35.4 | 43.5 | 0.00 | 0.00 | 0.00 | 38 | 1010.3 |
| 20260504230534 | 14 | 5 | 33.8 | 43.5 | 0.00 | 0.00 | 0.00 | 36 | 1009.9 |
| 20260504230047 | 15 | 360 | 30.6 | 41.8 | 0.00 | 0.00 | 0.00 | 34 | 1010.1 |
| 20260504225531 | 16 | 26 | 17.7 | 25.7 | 0.00 | 0.00 | 0.00 | 30 | 1009.8 |
| 20260504225033 | 16 | 360 | 17.7 | 25.7 | 0.00 | 0.00 | 0.00 | 29 | 1009.7 |
| 20260504224546 | 16 | 17 | 16.1 | 24.1 | 0.00 | 0.00 | 0.00 | 29 | 1009.7 |
| 20260504224037 | 16 | 360 | 19.3 | 25.7 | 0.00 | 0.00 | 0.00 | 29 | 1009.6 |
| 20260504223533 | 16 | 37 | 17.7 | 25.7 | 0.00 | 0.00 | 0.00 | 28 | 1009.7 |
| 20260504223051 | 16 | 53 | 12.9 | 33.8 | 0.00 | 0.00 | 0.00 | 29 | 1009.8 |
| 20260504222532 | 16 | 42 | 24.1 | 33.8 | 0.00 | 0.00 | 0.00 | 30 | 1009.7 |
| 20260504222035 | 16 | 28 | 19.3 | 37.0 | 0.00 | 0.00 | 0.00 | 28 | 1009.7 |
| 20260504221627 | 16 | 19 | 32.2 | 37.0 | 0.00 | 0.00 | 0.00 | 28 | 1009.7 |
| 20260504221030 | 16 | 11 | 22.5 | 30.6 | 0.00 | 0.00 | 0.00 | 28 | 1009.6 |
| 20260504220534 | 17 | 360 | 25.7 | 32.2 | 0.00 | 0.00 | 0.00 | 26 | 1009.5 |
| 20260504220047 | 17 | 38 | 20.9 | 32.2 | 0.00 | 0.00 | 0.00 | 27 | 1009.5 |
| 20260504215536 | 17 | 9 | 16.1 | 30.6 | 0.00 | 0.00 | 0.00 | 26 | 1009.5 |
| 20260504215036 | 17 | 20 | 8.0 | 17.7 | 0.00 | 0.00 | 0.00 | 26 | 1009.6 |
| 20260504214547 | 17 | 325 | 11.3 | 19.3 | 0.00 | 0.00 | 0.00 | 25 | 1009.6 |
| 20260504214033 | 17 | 331 | 6.4 | 19.3 | 0.00 | 0.00 | 0.00 | 25 | 1009.6 |
| 20260504213533 | 18 | 14 | 12.9 | 27.4 | 0.00 | 0.00 | 0.00 | 26 | 1009.7 |
| 20260504213044 | 18 | 5 | 11.3 | 27.4 | 0.00 | 0.00 | 0.00 | 25 | 1009.7 |
| 20260504212533 | 18 | 331 | 16.1 | 24.1 | 0.00 | 0.00 | 0.00 | 24 | 1009.7 |
| 20260504212037 | 18 | 14 | 12.9 | 20.9 | 0.00 | 0.00 | 0.00 | 24 | 1009.7 |
| 20260504211550 | 18 | 21 | 11.3 | 30.6 | 0.00 | 0.00 | 0.00 | 26 | 1009.8 |
| 20260504211034 | 18 | 153 | 9.7 | 30.6 | 0.00 | 0.00 | 0.00 | 24 | 1009.9 |
| 20260504210534 | 18 | 299 | 19.3 | 30.6 | 0.00 | 0.00 | 0.00 | 25 | 1010.0 |
| 20260504210051 | 18 | 5 | 14.5 | 27.4 | 0.00 | 0.00 | 0.00 | 26 | 1009.9 |
| 20260504205533 | 18 | 73 | 19.3 | 27.4 | 0.00 | 0.00 | 0.00 | 25 | 1009.9 |
| 20260504205034 | 18 | 360 | 11.3 | 30.6 | 0.00 | 0.00 | 0.00 | 26 | 1010.0 |
| 20260504204548 | 18 | 5 | 19.3 | 30.6 | 0.00 | 0.00 | 0.00 | 27 | 1010.1 |
| 20260504204033 | 18 | 13 | 20.9 | 37.0 | 0.00 | 0.00 | 0.00 | 26 | 1010.1 |
| 20260504203533 | 18 | 9 | 27.4 | 38.6 | 0.00 | 0.00 | 0.00 | 26 | 1010.2 |
| 20260504203046 | 18 | 5 | 27.4 | 38.6 | 0.00 | 0.00 | 0.00 | 28 | 1010.1 |
| 20260504202533 | 18 | 19 | 29.0 | 38.6 | 0.00 | 0.00 | 0.00 | 28 | 1010.1 |
| 20260504202034 | 18 | 5 | 27.4 | 33.8 | 0.00 | 0.00 | 0.00 | 26 | 1010.1 |
| 20260504201553 | 18 | 360 | 24.1 | 38.6 | 0.00 | 0.00 | 0.00 | 27 | 1010.3 |
| 20260504201035 | 18 | 5 | 20.9 | 38.6 | 0.00 | 0.00 | 0.00 | 28 | 1010.2 |
| 20260504200534 | 18 | 9 | 17.7 | 37.0 | 0.00 | 0.00 | 0.00 | 27 | 1010.1 |
| 20260504200049 | 18 | 323 | 6.4 | 30.6 | 0.00 | 0.00 | 0.00 | 24 | 1010.4 |
| 20260504195534 | 18 | 209 | 19.3 | 30.6 | 0.00 | 0.00 | 0.00 | 24 | 1010.4 |
| 20260504195033 | 17 | 182 | 14.5 | 29.0 | 0.00 | 0.00 | 0.00 | 26 | 1010.4 |
| 20260504194553 | 17 | 184 | 14.5 | 22.5 | 0.00 | 0.00 | 0.00 | 26 | 1010.7 |
| 20260504194034 | 17 | 217 | 4.8 | 17.7 | 0.00 | 0.00 | 0.00 | 25 | 1010.5 |
| 20260504193531 | 17 | 161 | 12.9 | 22.5 | 0.00 | 0.00 | 0.00 | 24 | 1010.4 |
| 20260504193049 | 18 | 173 | 11.3 | 30.6 | 0.00 | 0.00 | 0.00 | 24 | 1010.3 |
| 20260504192533 | 18 | 136 | 17.7 | 30.6 | 0.00 | 0.00 | 0.00 | 24 | 1010.2 |
| 20260504192030 | 19 | 140 | 11.3 | 29.0 | 0.00 | 0.00 | 0.00 | 24 | 1010.1 |
| 20260504191609 | 19 | 134 | 19.3 | 27.4 | 0.00 | 0.00 | 0.00 | 26 | 1010.3 |
| 20260504191033 | 18 | 197 | 19.3 | 27.4 | 0.00 | 0.00 | 0.00 | 24 | 1010.3 |
| 20260504190533 | 18 | 191 | 11.3 | 19.3 | 0.00 | 0.00 | 0.00 | 23 | 1010.3 |
| 20260504190048 | 18 | 217 | 12.9 | 17.7 | 0.00 | 0.00 | 0.00 | 23 | 1010.3 |
| 20260504185529 | 18 | 227 | 11.3 | 45.1 | 0.00 | 0.00 | 0.00 | 23 | 1010.4 |
| 20260504185030 | 18 | 121 | 17.7 | 45.1 | 0.00 | 0.00 | 0.00 | 21 | 1010.6 |
| 20260504184556 | 19 | 211 | 19.3 | 27.4 | 0.00 | 0.00 | 0.00 | 25 | 1010.5 |
| 20260504184034 | 18 | 254 | 9.7 | 17.7 | 0.00 | 0.00 | 0.00 | 24 | 1010.5 |
| 20260504183534 | 18 | 286 | 12.9 | 20.9 | 0.00 | 0.00 | 0.00 | 25 | 1010.6 |
| 20260504183051 | 18 | 246 | 11.3 | 20.9 | 0.00 | 0.00 | 0.00 | 22 | 1010.6 |
| 20260504182533 | 18 | 266 | 12.9 | 20.9 | 0.00 | 0.00 | 0.00 | 23 | 1010.7 |
| 20260504182033 | 18 | 273 | 12.9 | 20.9 | 0.00 | 0.00 | 0.00 | 23 | 1010.7 |
| 20260504181547 | 18 | 252 | 6.4 | 17.7 | 0.00 | 0.00 | 0.00 | 25 | 1010.6 |
| 20260504181033 | 18 | 254 | 8.0 | 24.1 | 0.00 | 0.00 | 0.00 | 25 | 1010.7 |
| 20260504180534 | 19 | 246 | 16.1 | 24.1 | 0.00 | 0.00 | 0.00 | 26 | 1010.9 |
| 20260504180047 | 18 | 251 | 14.5 | 24.1 | 0.00 | 0.00 | 0.00 | 27 | 1010.8 |
| 20260504175533 | 17 | 231 | 12.9 | 29.0 | 0.00 | 0.00 | 0.00 | 27 | 1010.9 |
| 20260504175033 | 18 | 254 | 22.5 | 29.0 | 0.00 | 0.00 | 0.00 | 26 | 1011.1 |
| 20260504174549 | 18 | 271 | 14.5 | 20.9 | 0.00 | 0.00 | 0.00 | 25 | 1011.1 |
| 20260504174034 | 18 | 209 | 11.3 | 24.1 | 0.00 | 0.00 | 0.00 | 25 | 1011.2 |
| 20260504173534 | 18 | 298 | 9.7 | 24.1 | 0.00 | 0.00 | 0.00 | 26 | 1011.3 |
| 20260504173049 | 18 | 268 | 11.3 | 30.6 | 0.00 | 0.00 | 0.00 | 25 | 1011.4 |
| 20260504172534 | 18 | 5 | 11.3 | 30.6 | 0.00 | 0.00 | 0.00 | 23 | 1011.4 |
| 20260504172033 | 18 | 248 | 14.5 | 24.1 | 0.00 | 0.00 | 0.00 | 24 | 1011.5 |
| 20260504171552 | 18 | 242 | 11.3 | 22.5 | 0.00 | 0.00 | 0.00 | 23 | 1011.4 |
| 20260504171034 | 18 | 261 | 14.5 | 24.1 | 0.00 | 0.00 | 0.00 | 25 | 1011.6 |
| 20260504170534 | 18 | 228 | 16.1 | 24.1 | 0.00 | 0.00 | 0.00 | 25 | 1011.6 |
| 20260504151034 | 16 | 261 | 20.9 | 27.4 | 0.00 | 0.00 | 0.00 | 28 | 1012.1 |
| 20260504150533 | 16 | 253 | 19.3 | 25.7 | 0.00 | 0.00 | 0.00 | 29 | 1012.1 |
| 20260504141035 | 14 | 248 | 14.5 | 20.9 | 0.00 | 0.00 | 0.00 | 34 | 1012.1 |
| 20260504140532 | 13 | 239 | 12.9 | 19.3 | 0.00 | 0.00 | 0.00 | 36 | 1012.0 |
| 20260504130533 | 9 | 224 | 14.5 | 20.9 | 0.00 | 0.00 | 0.00 | 42 | 1012.1 |
| 20260504110533 | 7 | 247 | 4.8 | 6.4 | 0.00 | 0.00 | 0.00 | 44 | 1012.2 |
| 20260504100533 | 7 | 242 | 4.8 | 9.7 | 0.00 | 0.00 | 0.00 | 47 | 1012.5 |
| 20260504081556 | 8 | 211 | 11.3 | 14.5 | 0.00 | 0.00 | 0.00 | 44 | 1012.9 |
| 20260504081035 | 8 | 215 | 9.7 | 16.1 | 0.00 | 0.00 | 0.00 | 43 | 1013.0 |
| 20260504080533 | 9 | 202 | 12.9 | 16.1 | 0.00 | 0.00 | 0.00 | 42 | 1013.0 |